sensor_id;sensor_type;location;lat;lon;timestamp;pressure;altitude;pressure_sealevel;temperature;humidity
34370;BME280;20635;55.812;37.560;2023-08-31T00:00:13;99431.25;;;23.79;64.77
34370;BME280;20635;55.812;37.560;2023-08-31T00:02:39;99430.44;;;23.78;64.85
34370;BME280;20635;55.812;37.560;2023-08-31T00:05:08;99442.44;;;23.79;64.77
34370;BME280;20635;55.812;37.560;2023-08-31T00:07:34;99430.44;;;23.78;65.03
34370;BME280;20635;55.812;37.560;2023-08-31T00:10:00;99438.81;;;23.78;64.97
34370;BME280;20635;55.812;37.560;2023-08-31T00:12:31;99434.72;;;23.76;64.88
34370;BME280;20635;55.812;37.560;2023-08-31T00:14:57;99436.03;;;23.78;64.78
34370;BME280;20635;55.812;37.560;2023-08-31T00:17:23;99431.94;;;23.76;64.76
34370;BME280;20635;55.812;37.560;2023-08-31T00:19:49;99438.34;;;23.76;64.88
34370;BME280;20635;55.812;37.560;2023-08-31T00:22:15;99443.13;;;23.76;64.88
34370;BME280;20635;55.812;37.560;2023-08-31T00:24:41;99441.97;;;23.77;65.02
34370;BME280;20635;55.812;37.560;2023-08-31T00:27:07;99437.00;;;23.74;64.81
34370;BME280;20635;55.812;37.560;2023-08-31T00:29:36;99453.16;;;23.77;64.85
34370;BME280;20635;55.812;37.560;2023-08-31T00:32:05;99452.63;;;23.75;64.99
34370;BME280;20635;55.812;37.560;2023-08-31T00:34:31;99445.09;;;23.75;64.73
34370;BME280;20635;55.812;37.560;2023-08-31T00:36:58;99445.91;;;23.76;65.11
34370;BME280;20635;55.812;37.560;2023-08-31T00:39:24;99438.66;;;23.75;64.83
34370;BME280;20635;55.812;37.560;2023-08-31T00:41:52;99449.53;;;23.76;64.91
34370;BME280;20635;55.812;37.560;2023-08-31T00:44:18;99442.31;;;23.75;64.95
34370;BME280;20635;55.812;37.560;2023-08-31T00:46:44;99436.72;;;23.75;64.81
34370;BME280;20635;55.812;37.560;2023-08-31T00:49:11;99440.63;;;23.74;65.11
34370;BME280;20635;55.812;37.560;2023-08-31T00:51:37;99447.03;;;23.75;64.96
34370;BME280;20635;55.812;37.560;2023-08-31T00:54:03;99446.22;;;23.74;64.79
34370;BME280;20635;55.812;37.560;2023-08-31T00:56:32;99446.22;;;23.74;65.08
34370;BME280;20635;55.812;37.560;2023-08-31T00:58:59;99438.16;;;23.73;64.88
34370;BME280;20635;55.812;37.560;2023-08-31T01:09:33;99441.63;;;23.78;64.75
34370;BME280;20635;55.812;37.560;2023-08-31T01:12:12;99463.53;;;23.76;65.02
34370;BME280;20635;55.812;37.560;2023-08-31T01:14:46;99449.03;;;23.74;64.71
34370;BME280;20635;55.812;37.560;2023-08-31T01:17:15;99451.00;;;23.74;64.69
34370;BME280;20635;55.812;37.560;2023-08-31T01:19:48;99447.03;;;23.75;65.11
34370;BME280;20635;55.812;37.560;2023-08-31T01:22:39;99450.03;;;23.78;64.80
34370;BME280;20635;55.812;37.560;2023-08-31T01:25:07;99442.59;;;23.74;64.82
34370;BME280;20635;55.812;37.560;2023-08-31T01:27:35;99444.59;;;23.73;64.87
34370;BME280;20635;55.812;37.560;2023-08-31T01:30:03;99448.19;;;23.74;64.93
34370;BME280;20635;55.812;37.560;2023-08-31T01:32:30;99454.97;;;23.73;64.76
34370;BME280;20635;55.812;37.560;2023-08-31T01:34:57;99448.53;;;23.72;64.62
34370;BME280;20635;55.812;37.560;2023-08-31T01:37:34;99440.31;;;23.76;64.91
34370;BME280;20635;55.812;37.560;2023-08-31T01:40:06;99430.59;;;23.73;64.80
34370;BME280;20635;55.812;37.560;2023-08-31T01:42:38;99434.56;;;23.72;64.78
34370;BME280;20635;55.812;37.560;2023-08-31T01:45:06;99436.53;;;23.72;64.94
34370;BME280;20635;55.812;37.560;2023-08-31T01:47:34;99429.25;;;23.71;64.80
34370;BME280;20635;55.812;37.560;2023-08-31T01:50:00;99432.56;;;23.73;64.83
34370;BME280;20635;55.812;37.560;2023-08-31T01:52:26;99445.75;;;23.72;64.57
34370;BME280;20635;55.812;37.560;2023-08-31T01:54:52;99431.25;;;23.70;64.87
34370;BME280;20635;55.812;37.560;2023-08-31T01:57:18;99431.25;;;23.70;64.73
34370;BME280;20635;55.812;37.560;2023-08-31T02:00:04;99448.03;;;23.70;64.63
34370;BME280;20635;55.812;37.560;2023-08-31T02:02:40;99437.66;;;23.71;64.93
34370;BME280;20635;55.812;37.560;2023-08-31T02:05:08;99436.03;;;23.70;64.54
34370;BME280;20635;55.812;37.560;2023-08-31T02:07:34;99444.41;;;23.70;64.71
34370;BME280;20635;55.812;37.560;2023-08-31T02:10:02;99433.22;;;23.70;64.87
34370;BME280;20635;55.812;37.560;2023-08-31T02:12:28;99431.59;;;23.69;64.79
34370;BME280;20635;55.812;37.560;2023-08-31T02:14:54;99442.78;;;23.69;64.97
34370;BME280;20635;55.812;37.560;2023-08-31T02:17:20;99430.75;;;23.68;64.86
34370;BME280;20635;55.812;37.560;2023-08-31T02:19:46;99427.16;;;23.68;64.99
34370;BME280;20635;55.812;37.560;2023-08-31T02:22:12;99434.38;;;23.69;64.80
34370;BME280;20635;55.812;37.560;2023-08-31T02:24:39;99429.94;;;23.68;64.80
34370;BME280;20635;55.812;37.560;2023-08-31T02:27:05;99440.31;;;23.67;65.00
34370;BME280;20635;55.812;37.560;2023-08-31T02:29:31;99442.78;;;23.69;64.88
34370;BME280;20635;55.812;37.560;2023-08-31T02:31:57;99427.97;;;23.68;64.94
34370;BME280;20635;55.812;37.560;2023-08-31T02:34:23;99441.13;;;23.68;64.66
34370;BME280;20635;55.812;37.560;2023-08-31T02:36:49;99436.34;;;23.68;64.79
34370;BME280;20635;55.812;37.560;2023-08-31T02:39:15;99441.13;;;23.68;64.93
34370;BME280;20635;55.812;37.560;2023-08-31T02:41:41;99435.53;;;23.68;65.13
34370;BME280;20635;55.812;37.560;2023-08-31T02:44:07;99446.72;;;23.68;64.80
34370;BME280;20635;55.812;37.560;2023-08-31T02:46:33;99449.53;;;23.68;64.76
34370;BME280;20635;55.812;37.560;2023-08-31T02:48:59;99443.59;;;23.69;64.74
34370;BME280;20635;55.812;37.560;2023-08-31T02:51:25;99442.78;;;23.69;64.74
34370;BME280;20635;55.812;37.560;2023-08-31T02:53:51;99443.59;;;23.69;64.93
34370;BME280;20635;55.812;37.560;2023-08-31T02:56:19;99430.75;;;23.68;64.67
34370;BME280;20635;55.812;37.560;2023-08-31T02:58:45;99434.72;;;23.67;65.05
34370;BME280;20635;55.812;37.560;2023-08-31T03:01:13;99437.19;;;23.69;65.15
34370;BME280;20635;55.812;37.560;2023-08-31T03:03:43;99431.09;;;23.75;64.60
34370;BME280;20635;55.812;37.560;2023-08-31T03:06:11;99433.72;;;23.72;64.71
34370;BME280;20635;55.812;37.560;2023-08-31T03:08:37;99432.06;;;23.71;64.51
34370;BME280;20635;55.812;37.560;2023-08-31T03:11:04;99420.38;;;23.69;64.78
34370;BME280;20635;55.812;37.560;2023-08-31T03:13:31;99416.78;;;23.68;64.71
34370;BME280;20635;55.812;37.560;2023-08-31T03:15:58;99412.34;;;23.67;64.72
34370;BME280;20635;55.812;37.560;2023-08-31T03:18:25;99414.31;;;23.67;64.79
34370;BME280;20635;55.812;37.560;2023-08-31T03:20:51;99413.97;;;23.68;64.65
34370;BME280;20635;55.812;37.560;2023-08-31T03:23:17;99417.94;;;23.67;64.80
34370;BME280;20635;55.812;37.560;2023-08-31T03:25:43;99422.72;;;23.67;64.76
34370;BME280;20635;55.812;37.560;2023-08-31T03:28:09;99419.06;;;23.66;64.56
34370;BME280;20635;55.812;37.560;2023-08-31T03:30:35;99411.81;;;23.65;64.52
34370;BME280;20635;55.812;37.560;2023-08-31T03:33:02;99419.91;;;23.67;64.69
34370;BME280;20635;55.812;37.560;2023-08-31T03:35:28;99418.25;;;23.66;64.75
34370;BME280;20635;55.812;37.560;2023-08-31T03:37:57;99420.22;;;23.65;64.77
34370;BME280;20635;55.812;37.560;2023-08-31T03:40:23;99428.59;;;23.65;64.49
34370;BME280;20635;55.812;37.560;2023-08-31T03:42:50;99426.97;;;23.64;64.86
34370;BME280;20635;55.812;37.560;2023-08-31T03:45:16;99430.59;;;23.65;64.58
34370;BME280;20635;55.812;37.560;2023-08-31T03:47:42;99421.69;;;23.63;64.68
34370;BME280;20635;55.812;37.560;2023-08-31T03:50:07;99449.34;;;23.64;64.84
34370;BME280;20635;55.812;37.560;2023-08-31T03:52:36;99441.78;;;23.65;64.94
34370;BME280;20635;55.812;37.560;2023-08-31T03:55:02;99437.31;;;23.64;64.78
34370;BME280;20635;55.812;37.560;2023-08-31T03:57:29;99430.59;;;23.65;64.74
34370;BME280;20635;55.812;37.560;2023-08-31T04:00:00;99441.78;;;23.65;64.89
34370;BME280;20635;55.812;37.560;2023-08-31T04:02:26;99446.56;;;23.64;64.79
34370;BME280;20635;55.812;37.560;2023-08-31T04:04:53;99450.16;;;23.65;64.60
34370;BME280;20635;55.812;37.560;2023-08-31T04:07:19;99444.56;;;23.65;64.50
34370;BME280;20635;55.812;37.560;2023-08-31T04:09:45;99444.25;;;23.66;64.58
34370;BME280;20635;55.812;37.560;2023-08-31T04:12:10;99445.41;;;23.65;64.65
34370;BME280;20635;55.812;37.560;2023-08-31T04:14:36;99448.19;;;23.65;64.68
34370;BME280;20635;55.812;37.560;2023-08-31T04:17:02;99439.78;;;23.65;64.54
34370;BME280;20635;55.812;37.560;2023-08-31T04:19:30;99440.63;;;23.66;64.65
34370;BME280;20635;55.812;37.560;2023-08-31T04:21:56;99450.16;;;23.65;64.57
34370;BME280;20635;55.812;37.560;2023-08-31T04:24:22;99457.75;;;23.64;64.60
34370;BME280;20635;55.812;37.560;2023-08-31T04:26:48;99454.94;;;23.64;64.59
34370;BME280;20635;55.812;37.560;2023-08-31T04:29:16;99463.34;;;23.64;64.74
34370;BME280;20635;55.812;37.560;2023-08-31T04:31:42;99466.13;;;23.64;64.75
34370;BME280;20635;55.812;37.560;2023-08-31T04:34:08;99465.28;;;23.64;64.47
34370;BME280;20635;55.812;37.560;2023-08-31T04:36:34;99458.88;;;23.63;64.30
34370;BME280;20635;55.812;37.560;2023-08-31T04:39:00;99462.47;;;23.64;64.30
34370;BME280;20635;55.812;37.560;2023-08-31T04:41:26;99461.66;;;23.63;64.35
34370;BME280;20635;55.812;37.560;2023-08-31T04:43:52;99468.06;;;23.64;64.65
34370;BME280;20635;55.812;37.560;2023-08-31T04:46:18;99470.88;;;23.64;64.64
34370;BME280;20635;55.812;37.560;2023-08-31T04:48:44;99463.34;;;23.64;64.43
34370;BME280;20635;55.812;37.560;2023-08-31T04:51:29;99459.06;;;23.67;64.52
34370;BME280;20635;55.812;37.560;2023-08-31T04:53:56;99455.25;;;23.63;64.56
34370;BME280;20635;55.812;37.560;2023-08-31T04:56:21;99455.25;;;23.63;64.56
34370;BME280;20635;55.812;37.560;2023-08-31T04:58:47;99463.63;;;23.63;64.71
34370;BME280;20635;55.812;37.560;2023-08-31T05:01:13;99462.81;;;23.62;64.65
34370;BME280;20635;55.812;37.560;2023-08-31T05:03:39;99458.34;;;23.61;64.56
34370;BME280;20635;55.812;37.560;2023-08-31T05:06:05;99461.16;;;23.61;64.51
34370;BME280;20635;55.812;37.560;2023-08-31T05:08:31;99457.53;;;23.61;64.34
34370;BME280;20635;55.812;37.560;2023-08-31T05:10:57;99461.47;;;23.60;64.53
34370;BME280;20635;55.812;37.560;2023-08-31T05:13:23;99463.94;;;23.61;64.30
34370;BME280;20635;55.812;37.560;2023-08-31T05:15:49;99461.97;;;23.62;64.62
34370;BME280;20635;55.812;37.560;2023-08-31T05:18:14;99458.34;;;23.61;64.73
34370;BME280;20635;55.812;37.560;2023-08-31T05:20:44;99460.84;;;23.63;64.58
34370;BME280;20635;55.812;37.560;2023-08-31T05:23:11;99457.53;;;23.61;64.73
34370;BME280;20635;55.812;37.560;2023-08-31T05:25:42;99452.75;;;23.61;64.45
34370;BME280;20635;55.812;37.560;2023-08-31T05:28:07;99461.16;;;23.61;64.65
34370;BME280;20635;55.812;37.560;2023-08-31T05:30:33;99462.31;;;23.60;64.37
34370;BME280;20635;55.812;37.560;2023-08-31T05:33:00;99465.44;;;23.59;64.50
34370;BME280;20635;55.812;37.560;2023-08-31T05:35:26;99472.69;;;23.60;64.58
34370;BME280;20635;55.812;37.560;2023-08-31T05:37:52;99480.25;;;23.59;64.41
34370;BME280;20635;55.812;37.560;2023-08-31T05:40:18;99484.69;;;23.60;64.37
34370;BME280;20635;55.812;37.560;2023-08-31T05:42:44;99483.88;;;23.60;64.63
34370;BME280;20635;55.812;37.560;2023-08-31T05:45:10;99487.47;;;23.60;64.48
34370;BME280;20635;55.812;37.560;2023-08-31T05:47:36;99488.63;;;23.59;64.64
34370;BME280;20635;55.812;37.560;2023-08-31T05:50:02;99486.66;;;23.60;64.53
34370;BME280;20635;55.812;37.560;2023-08-31T05:52:29;99492.25;;;23.60;64.47
34370;BME280;20635;55.812;37.560;2023-08-31T05:54:55;99492.25;;;23.60;64.70
34370;BME280;20635;55.812;37.560;2023-08-31T05:57:22;99502.63;;;23.59;64.40
34370;BME280;20635;55.812;37.560;2023-08-31T05:59:48;99501.47;;;23.60;64.45
34370;BME280;20635;55.812;37.560;2023-08-31T06:02:14;99500.66;;;23.60;64.67
34370;BME280;20635;55.812;37.560;2023-08-31T06:04:40;99503.44;;;23.60;64.57
34370;BME280;20635;55.812;37.560;2023-08-31T06:07:06;99497.84;;;23.60;64.50
34370;BME280;20635;55.812;37.560;2023-08-31T06:09:31;99500.66;;;23.60;64.63
34370;BME280;20635;55.812;37.560;2023-08-31T06:11:57;99501.81;;;23.59;64.65
34370;BME280;20635;55.812;37.560;2023-08-31T06:14:23;99507.41;;;23.59;64.43
34370;BME280;20635;55.812;37.560;2023-08-31T06:16:49;99511.84;;;23.60;64.51
34370;BME280;20635;55.812;37.560;2023-08-31T06:19:15;99516.59;;;23.59;64.52
34370;BME280;20635;55.812;37.560;2023-08-31T06:21:41;99517.44;;;23.60;64.33
34370;BME280;20635;55.812;37.560;2023-08-31T06:24:07;99511.84;;;23.60;64.45
34370;BME280;20635;55.812;37.560;2023-08-31T06:26:36;99507.41;;;23.59;64.64
34370;BME280;20635;55.812;37.560;2023-08-31T06:29:02;99504.59;;;23.59;64.64
34370;BME280;20635;55.812;37.560;2023-08-31T06:31:29;99507.88;;;23.61;64.48
34370;BME280;20635;55.812;37.560;2023-08-31T06:33:55;99507.88;;;23.61;64.62
34370;BME280;20635;55.812;37.560;2023-08-31T06:36:21;99507.06;;;23.60;64.39
34370;BME280;20635;55.812;37.560;2023-08-31T06:38:47;99502.63;;;23.59;64.29
34370;BME280;20635;55.812;37.560;2023-08-31T06:41:12;99503.09;;;23.61;64.41
34370;BME280;20635;55.812;37.560;2023-08-31T06:43:38;99507.88;;;23.61;64.27
34370;BME280;20635;55.812;37.560;2023-08-31T06:46:04;99500.66;;;23.60;64.39
34370;BME280;20635;55.812;37.560;2023-08-31T06:48:30;99512.31;;;23.62;64.28
34370;BME280;20635;55.812;37.560;2023-08-31T06:50:56;99516.28;;;23.61;64.29
34370;BME280;20635;55.812;37.560;2023-08-31T06:53:22;99509.84;;;23.60;64.00
34370;BME280;20635;55.812;37.560;2023-08-31T06:55:47;99517.09;;;23.61;64.28
34370;BME280;20635;55.812;37.560;2023-08-31T06:58:13;99526.31;;;23.62;64.33
34370;BME280;20635;55.812;37.560;2023-08-31T07:00:39;99533.56;;;23.63;64.15
34370;BME280;20635;55.812;37.560;2023-08-31T07:03:05;99521.56;;;23.62;64.01
34370;BME280;20635;55.812;37.560;2023-08-31T07:05:36;99523.19;;;23.63;64.19
34370;BME280;20635;55.812;37.560;2023-08-31T07:08:07;99516.78;;;23.63;64.37
34370;BME280;20635;55.812;37.560;2023-08-31T07:10:34;99511.19;;;23.63;64.25
34370;BME280;20635;55.812;37.560;2023-08-31T07:13:03;99513.16;;;23.62;63.83
34370;BME280;20635;55.812;37.560;2023-08-31T07:15:29;99514.81;;;23.63;64.02
34370;BME280;20635;55.812;37.560;2023-08-31T07:17:55;99515.97;;;23.62;64.24
34370;BME280;20635;55.812;37.560;2023-08-31T07:20:21;99515.63;;;23.64;63.88
34370;BME280;20635;55.812;37.560;2023-08-31T07:22:48;99506.41;;;23.63;63.99
34370;BME280;20635;55.812;37.560;2023-08-31T07:25:14;99501.66;;;23.64;64.21
34370;BME280;20635;55.812;37.560;2023-08-31T07:27:40;99505.59;;;23.63;64.27
34370;BME280;20635;55.812;37.560;2023-08-31T07:30:06;99505.28;;;23.64;64.13
34370;BME280;20635;55.812;37.560;2023-08-31T07:32:32;99495.53;;;23.62;64.24
34370;BME280;20635;55.812;37.560;2023-08-31T07:34:58;99506.13;;;23.65;64.15
34370;BME280;20635;55.812;37.560;2023-08-31T07:37:24;99504.13;;;23.65;64.09
34370;BME280;20635;55.812;37.560;2023-08-31T07:39:50;99508.09;;;23.64;63.88
34370;BME280;20635;55.812;37.560;2023-08-31T07:42:19;99510.88;;;23.64;64.08
34370;BME280;20635;55.812;37.560;2023-08-31T07:44:45;99504.13;;;23.65;63.90
34370;BME280;20635;55.812;37.560;2023-08-31T07:47:11;99500.53;;;23.65;63.85
34370;BME280;20635;55.812;37.560;2023-08-31T07:49:37;99503.31;;;23.65;63.83
34370;BME280;20635;55.812;37.560;2023-08-31T07:52:03;99506.94;;;23.65;64.14
34370;BME280;20635;55.812;37.560;2023-08-31T07:54:29;99502.16;;;23.66;64.14
34370;BME280;20635;55.812;37.560;2023-08-31T07:56:55;99504.97;;;23.66;63.99
34370;BME280;20635;55.812;37.560;2023-08-31T07:59:21;99509.72;;;23.65;63.76
34370;BME280;20635;55.812;37.560;2023-08-31T08:01:47;99498.53;;;23.65;64.04
34370;BME280;20635;55.812;37.560;2023-08-31T08:04:13;99504.13;;;23.65;63.68
34370;BME280;20635;55.812;37.560;2023-08-31T08:06:39;99492.94;;;23.65;64.17
34370;BME280;20635;55.812;37.560;2023-08-31T08:09:05;99501.03;;;23.67;63.79
34370;BME280;20635;55.812;37.560;2023-08-31T08:11:31;99495.44;;;23.67;63.74
34370;BME280;20635;55.812;37.560;2023-08-31T08:13:57;99502.16;;;23.66;63.88
34370;BME280;20635;55.812;37.560;2023-08-31T08:16:23;99499.38;;;23.66;64.02
34370;BME280;20635;55.812;37.560;2023-08-31T08:18:50;99506.63;;;23.67;63.69
34370;BME280;20635;55.812;37.560;2023-08-31T08:21:16;99504.66;;;23.67;63.58
34370;BME280;20635;55.812;37.560;2023-08-31T08:23:41;99507.44;;;23.67;63.77
34370;BME280;20635;55.812;37.560;2023-08-31T08:26:07;99502.97;;;23.66;63.93
34370;BME280;20635;55.812;37.560;2023-08-31T08:28:33;99504.66;;;23.67;63.90
34370;BME280;20635;55.812;37.560;2023-08-31T08:31:02;99487.53;;;23.69;63.75
34370;BME280;20635;55.812;37.560;2023-08-31T08:33:31;99486.72;;;23.68;63.80
34370;BME280;20635;55.812;37.560;2023-08-31T08:35:57;99486.72;;;23.68;63.97
34370;BME280;20635;55.812;37.560;2023-08-31T08:38:24;99491.50;;;23.68;63.84
34370;BME280;20635;55.812;37.560;2023-08-31T08:40:50;99483.91;;;23.68;63.72
34370;BME280;20635;55.812;37.560;2023-08-31T08:43:23;99486.72;;;23.68;63.75
34370;BME280;20635;55.812;37.560;2023-08-31T08:45:50;99495.94;;;23.69;63.80
34370;BME280;20635;55.812;37.560;2023-08-31T08:48:17;99493.13;;;23.69;63.74
34370;BME280;20635;55.812;37.560;2023-08-31T08:50:44;99487.53;;;23.69;63.79
34370;BME280;20635;55.812;37.560;2023-08-31T08:53:10;99497.91;;;23.68;63.75
34370;BME280;20635;55.812;37.560;2023-08-31T08:55:36;99492.31;;;23.68;63.62
34370;BME280;20635;55.812;37.560;2023-08-31T08:58:04;99499.88;;;23.68;63.77
34370;BME280;20635;55.812;37.560;2023-08-31T09:00:32;99496.75;;;23.69;63.73
34370;BME280;20635;55.812;37.560;2023-08-31T09:02:59;99495.59;;;23.70;63.66
34370;BME280;20635;55.812;37.560;2023-08-31T09:05:26;99488.34;;;23.69;63.82
34370;BME280;20635;55.812;37.560;2023-08-31T09:10:43;99499.38;;;23.74;63.75
34370;BME280;20635;55.812;37.560;2023-08-31T09:13:13;99499.22;;;23.71;63.54
34370;BME280;20635;55.812;37.560;2023-08-31T09:15:41;99507.59;;;23.71;63.58
34370;BME280;20635;55.812;37.560;2023-08-31T09:18:13;99496.41;;;23.71;63.64
34370;BME280;20635;55.812;37.560;2023-08-31T09:20:46;99502.53;;;23.73;63.58
34370;BME280;20635;55.812;37.560;2023-08-31T09:23:13;99504.81;;;23.71;63.39
34370;BME280;20635;55.812;37.560;2023-08-31T09:25:52;99506.97;;;23.74;63.74
34370;BME280;20635;55.812;37.560;2023-08-31T09:28:21;99501.69;;;23.72;63.58
34370;BME280;20635;55.812;37.560;2023-08-31T09:30:49;99502.00;;;23.71;63.64
34370;BME280;20635;55.812;37.560;2023-08-31T09:33:17;99499.72;;;23.73;63.59
34370;BME280;20635;55.812;37.560;2023-08-31T09:35:52;99504.69;;;23.76;63.79
34370;BME280;20635;55.812;37.560;2023-08-31T09:38:18;99502.53;;;23.73;63.42
34370;BME280;20635;55.812;37.560;2023-08-31T09:40:45;99500.53;;;23.73;63.53
34370;BME280;20635;55.812;37.560;2023-08-31T09:43:11;99494.13;;;23.73;63.56
34370;BME280;20635;55.812;37.560;2023-08-31T09:45:38;99499.72;;;23.73;63.48
34370;BME280;20635;55.812;37.560;2023-08-31T09:48:04;99497.75;;;23.73;63.76
34370;BME280;20635;55.812;37.560;2023-08-31T09:50:32;99503.00;;;23.75;63.36
34370;BME280;20635;55.812;37.560;2023-08-31T09:53:03;99503.00;;;23.75;63.57
34370;BME280;20635;55.812;37.560;2023-08-31T09:55:33;99501.06;;;23.75;63.62
34370;BME280;20635;55.812;37.560;2023-08-31T09:58:01;99495.47;;;23.75;63.55
34370;BME280;20635;55.812;37.560;2023-08-31T10:00:32;99503.19;;;23.78;63.31
34370;BME280;20635;55.812;37.560;2023-08-31T10:03:03;99500.38;;;23.78;63.61
34370;BME280;20635;55.812;37.560;2023-08-31T10:05:29;99499.91;;;23.76;63.35
34370;BME280;20635;55.812;37.560;2023-08-31T10:07:55;99496.75;;;23.78;63.45
34370;BME280;20635;55.812;37.560;2023-08-31T10:10:21;99492.00;;;23.78;63.30
34370;BME280;20635;55.812;37.560;2023-08-31T10:12:50;99492.00;;;23.78;63.35
34370;BME280;20635;55.812;37.560;2023-08-31T10:15:18;99484.41;;;23.79;63.28
34370;BME280;20635;55.812;37.560;2023-08-31T10:17:45;99482.78;;;23.78;63.42
34370;BME280;20635;55.812;37.560;2023-08-31T10:20:17;99484.59;;;23.83;63.61
34370;BME280;20635;55.812;37.560;2023-08-31T10:22:44;99481.31;;;23.81;63.48
34370;BME280;20635;55.812;37.560;2023-08-31T10:25:10;99486.91;;;23.81;63.12
34370;BME280;20635;55.812;37.560;2023-08-31T10:27:39;99484.94;;;23.81;63.45
34370;BME280;20635;55.812;37.560;2023-08-31T10:30:34;99489.22;;;23.87;63.13
34370;BME280;20635;55.812;37.560;2023-08-31T10:43:47;99482.28;;;23.93;63.01
34370;BME280;20635;55.812;37.560;2023-08-31T10:46:24;99476.84;;;23.88;63.14
34370;BME280;20635;55.812;37.560;2023-08-31T10:48:57;99487.22;;;23.88;62.96
34370;BME280;20635;55.812;37.560;2023-08-31T10:51:28;99481.31;;;23.89;63.24
34370;BME280;20635;55.812;37.560;2023-08-31T10:56:30;99484.13;;;23.89;63.18
34370;BME280;20635;55.812;37.560;2023-08-31T10:59:00;99482.97;;;23.90;63.47
34370;BME280;20635;55.812;37.560;2023-08-31T11:04:27;99481.81;;;23.91;63.23
34370;BME280;20635;55.812;37.560;2023-08-31T11:07:14;99473.59;;;23.95;63.35
34370;BME280;20635;55.812;37.560;2023-08-31T11:09:40;99475.38;;;23.91;63.03
34370;BME280;20635;55.812;37.560;2023-08-31T11:12:07;99471.44;;;23.92;63.02
34370;BME280;20635;55.812;37.560;2023-08-31T11:14:33;99463.03;;;23.92;62.89
34370;BME280;20635;55.812;37.560;2023-08-31T11:17:00;99465.50;;;23.93;63.01
34370;BME280;20635;55.812;37.560;2023-08-31T11:19:27;99461.56;;;23.94;62.84
34370;BME280;20635;55.812;37.560;2023-08-31T11:21:54;99464.84;;;23.96;62.82
34370;BME280;20635;55.812;37.560;2023-08-31T11:24:21;99460.06;;;23.97;63.06
34370;BME280;20635;55.812;37.560;2023-08-31T11:26:50;99458.91;;;23.98;62.97
34370;BME280;20635;55.812;37.560;2023-08-31T11:29:17;99452.19;;;23.99;62.82
34370;BME280;20635;55.812;37.560;2023-08-31T11:31:43;99462.56;;;23.98;62.70
34370;BME280;20635;55.812;37.560;2023-08-31T11:34:14;99466.66;;;24.01;62.84
34370;BME280;20635;55.812;37.560;2023-08-31T11:36:44;99455.13;;;24.02;62.72
34370;BME280;20635;55.812;37.560;2023-08-31T11:39:12;99451.84;;;24.00;63.01
34370;BME280;20635;55.812;37.560;2023-08-31T11:41:38;99449.53;;;24.02;63.10
34370;BME280;20635;55.812;37.560;2023-08-31T11:44:08;99445.91;;;24.02;62.89
34370;BME280;20635;55.812;37.560;2023-08-31T11:46:36;99442.81;;;24.03;62.89
34370;BME280;20635;55.812;37.560;2023-08-31T11:49:03;99430.44;;;24.04;62.83
34370;BME280;20635;55.812;37.560;2023-08-31T11:51:35;99441.00;;;24.08;62.90
34370;BME280;20635;55.812;37.560;2023-08-31T11:54:04;99446.59;;;24.08;62.66
34370;BME280;20635;55.812;37.560;2023-08-31T11:59:09;99434.88;;;24.14;62.53
34370;BME280;20635;55.812;37.560;2023-08-31T12:01:42;99433.72;;;24.15;62.79
34370;BME280;20635;55.812;37.560;2023-08-31T12:04:16;99429.44;;;24.18;62.80
34370;BME280;20635;55.812;37.560;2023-08-31T12:06:46;99414.63;;;24.17;62.67
34370;BME280;20635;55.812;37.560;2023-08-31T12:09:13;99411.84;;;24.17;62.58
34370;BME280;20635;55.812;37.560;2023-08-31T12:11:39;99405.06;;;24.18;62.48
34370;BME280;20635;55.812;37.560;2023-08-31T12:14:21;99412.13;;;24.24;62.56
34370;BME280;20635;55.812;37.560;2023-08-31T12:16:48;99407.22;;;24.21;62.50
34370;BME280;20635;55.812;37.560;2023-08-31T12:19:15;99399.66;;;24.22;62.45
34370;BME280;20635;55.812;37.560;2023-08-31T12:21:46;99411.00;;;24.25;62.36
34370;BME280;20635;55.812;37.560;2023-08-31T12:24:12;99409.34;;;24.24;62.41
34370;BME280;20635;55.812;37.560;2023-08-31T12:26:38;99411.31;;;24.24;62.23
34370;BME280;20635;55.812;37.560;2023-08-31T12:29:05;99411.81;;;24.26;62.12
34370;BME280;20635;55.812;37.560;2023-08-31T12:31:31;99415.44;;;24.26;62.34
34370;BME280;20635;55.812;37.560;2023-08-31T12:33:58;99415.44;;;24.26;62.33
34370;BME280;20635;55.812;37.560;2023-08-31T12:36:25;99406.22;;;24.26;62.33
34370;BME280;20635;55.812;37.560;2023-08-31T12:38:51;99405.88;;;24.27;62.15
34370;BME280;20635;55.812;37.560;2023-08-31T12:41:19;99424.00;;;24.30;62.26
34370;BME280;20635;55.812;37.560;2023-08-31T12:43:45;99409.16;;;24.29;62.47
34370;BME280;20635;55.812;37.560;2023-08-31T12:46:11;99403.56;;;24.29;62.17
34370;BME280;20635;55.812;37.560;2023-08-31T12:48:39;99400.75;;;24.29;62.18
34370;BME280;20635;55.812;37.560;2023-08-31T12:51:05;99391.53;;;24.29;62.09
34370;BME280;20635;55.812;37.560;2023-08-31T12:53:31;99395.16;;;24.29;62.28
34370;BME280;20635;55.812;37.560;2023-08-31T12:55:57;99396.84;;;24.30;62.18
34370;BME280;20635;55.812;37.560;2023-08-31T12:58:23;99390.88;;;24.32;61.95
34370;BME280;20635;55.812;37.560;2023-08-31T13:00:49;99397.31;;;24.33;62.17
34370;BME280;20635;55.812;37.560;2023-08-31T13:03:16;99400.09;;;24.33;62.13
34370;BME280;20635;55.812;37.560;2023-08-31T13:05:42;99393.34;;;24.34;61.95
34370;BME280;20635;55.812;37.560;2023-08-31T13:08:08;99389.41;;;24.35;62.09
34370;BME280;20635;55.812;37.560;2023-08-31T13:10:37;99391.06;;;24.36;61.99
34370;BME280;20635;55.812;37.560;2023-08-31T13:13:03;99393.03;;;24.35;62.04
34370;BME280;20635;55.812;37.560;2023-08-31T13:15:31;99387.44;;;24.35;62.07
34370;BME280;20635;55.812;37.560;2023-08-31T13:17:57;99388.25;;;24.36;61.90
34370;BME280;20635;55.812;37.560;2023-08-31T13:20:23;99383.47;;;24.36;61.81